メインページ
METAR-TAF:

METAR-TAF

空港 :

ブリュッセル空港

ブリュッセル, ベルギー

緯度: 50-54N, 経度: 004-32E, 海抜: 55m

現時点の気象観測

当レポートは42分前の04:20(UTC)に作成
の風 5kt
気温 6°C
湿度 61%
気圧 1022 hPa
視程10km以上
1,500メートル以下は雲なし、積乱雲なし

METAR: EBBR 040420Z 17005KT CAVOK 06/M01 Q1022 NOSIG

時間: 07:02 (05:02 UTC)

予報

当レポートは5時間52分前の23:10(UTC)に作成
予報は04日の 00時(UTC)から 05日の 06時(UTC)まで有効
南/南東の風 4kt
視程10km以上
1,500メートル以下は雲なし、積乱雲なし
確率 30% :
04日の 04時(UTC)から 04日の 07時(UTC)まで一時的に
視程: 4000m

TAF: EBBR 032310Z 0400/0506 15004KT CAVOK PROB30 TEMPO 0404/0407 4000 BR

4,000以上の空港の気象観測と天気予報(METAR報とTAF報)

利用可能な観測所は地図上に黄色い丸と赤い丸で示す。

丸の上にカーソルを重ねると観測所名を参照できる。

次にクリックすると気象観測と天気予報を参照できる。

マップの切り替え:黒色「×」印の緑ボタンをクリックして拡大、「-」印の緑ボタンをクリックして縮小、緑色の三角印をクリックして隣りの地図に切り替え


METAR-TAF: